Johns Creek, Georgia
Current Conditions -  °F | °C
As of 3:53 PM on Saturday 20 Dec 2014 (Local Time) from KPDK Reporting Station
Haze Haze  
Wind Chill: 50°   Ceiling: 1300
Heat Index: 50°   Visibility: 5mi
Dew Point: 44°   Wind: 0mph
Humidity: 80%   Direction: NA
Pressure: 30.15"   Gusts: NA
Location:  34.03°N, 84.2°W
Report Text: KPDK 202053Z 00000KT 5SM HZ OVC013 10/07 A3015 RMK AO2 SLP218 T01000067 55007
Loading
Personal Weather Stations






























Interactive Weather Map New forecast layout! Learn more

10-Day Weather Forecast

Advertisements
Track Severe Weather on mobile